Time;durP1;ratioP1;P1;durP2;ratioP2;P2;SDS_P1;SDS_P2;PMS_P1;PMS_P2;Temp;Humidity;BMP_temperature;BMP_pressure;BME280_temperature;BME280_humidity;BME280_pressure;Samples;Min_cycle;Max_cycle;Signal;HPM_P1;HPM_P2
2022/08/02 00:02:11;;;;;;;9.93;6.20;;;;;;;19.28;77.53;100003.80;124255;1099;104185;-75
2022/08/02 00:04:40;;;;;;;11.03;6.40;;;;;;;19.30;77.40;100002.87;124199;1099;104179;-75
2022/08/02 00:07:08;;;;;;;10.47;5.77;;;;;;;19.31;76.96;100001.11;124174;1102;102848;-75
2022/08/02 00:09:37;;;;;;;8.97;6.30;;;;;;;19.31;77.64;99999.32;124163;1099;104326;-75
2022/08/02 00:12:07;;;;;;;12.10;6.30;;;;;;;19.29;77.57;99994.90;124221;1099;104308;-74
2022/08/02 00:14:36;;;;;;;13.20;5.90;;;;;;;19.28;77.61;99994.03;124259;1099;104175;-75
2022/08/02 00:17:05;;;;;;;8.90;5.80;;;;;;;19.29;77.58;99994.90;124147;1099;104166;-75
2022/08/02 00:19:34;;;;;;;8.13;5.50;;;;;;;19.29;77.48;99995.80;124230;1099;104374;-74
2022/08/02 00:22:03;;;;;;;9.07;5.43;;;;;;;19.25;77.85;99991.39;124191;1102;104166;-75
2022/08/02 00:24:32;;;;;;;8.33;5.40;;;;;;;19.22;77.06;99996.73;124267;1099;102232;-75
2022/08/02 00:27:02;;;;;;;8.30;5.13;;;;;;;19.18;77.67;99993.23;124202;1099;104220;-74
2022/08/02 00:29:31;;;;;;;9.00;5.57;;;;;;;19.16;77.42;99994.99;124234;1099;102925;-75
2022/08/02 00:32:00;;;;;;;10.23;5.80;;;;;;;19.14;77.99;99994.13;124209;1099;102963;-75
2022/08/02 00:34:28;;;;;;;9.27;5.20;;;;;;;19.12;77.91;99989.70;124220;1099;104175;-75
2022/08/02 00:36:57;;;;;;;8.80;5.27;;;;;;;19.14;77.92;100002.11;124209;1099;104241;-75
2022/08/02 00:39:26;;;;;;;8.40;5.13;;;;;;;19.14;77.28;99995.92;124186;1099;104257;-75
2022/08/02 00:41:54;;;;;;;7.97;4.77;;;;;;;19.19;77.69;100000.29;124187;1100;102222;-75
2022/08/02 00:44:23;;;;;;;7.93;5.20;;;;;;;19.25;77.84;99998.50;124190;1099;104191;-75
2022/08/02 00:46:52;;;;;;;7.70;5.07;;;;;;;19.29;77.75;99990.48;124185;1099;104182;-75
2022/08/02 00:49:21;;;;;;;8.67;4.90;;;;;;;19.29;77.59;99995.80;124187;1099;104063;-74
2022/08/02 00:51:49;;;;;;;8.13;5.10;;;;;;;19.30;77.39;100000.20;124214;1099;104224;-75
2022/08/02 00:54:18;;;;;;;10.07;5.47;;;;;;;19.27;77.69;99997.57;124230;1099;104303;-74
2022/08/02 00:56:47;;;;;;;8.77;5.50;;;;;;;19.24;77.75;100002.91;124222;1099;104306;-74
2022/08/02 00:59:15;;;;;;;8.00;5.37;;;;;;;19.23;77.67;100011.81;124133;1099;104386;-75
2022/08/02 01:01:45;;;;;;;9.70;5.47;;;;;;;19.23;77.94;100011.81;124180;1099;104173;-75
2022/08/02 01:04:14;;;;;;;10.90;5.33;;;;;;;19.25;77.51;100010.01;124222;1101;104169;-74
2022/08/02 01:06:45;;;;;;;7.97;5.40;;;;;;;19.25;77.11;100010.01;124236;1102;104217;-74
2022/08/02 01:09:14;;;;;;;7.47;5.03;;;;;;;19.24;77.94;100016.21;124153;1102;103036;-75
2022/08/02 01:11:43;;;;;;;10.10;5.33;;;;;;;19.23;77.29;100011.81;124180;1102;102699;-74
2022/08/02 01:14:13;;;;;;;9.57;5.43;;;;;;;19.22;78.20;100013.56;124217;1098;103514;-75
2022/08/02 01:16:50;;;;;;;11.13;5.67;;;;;;;19.20;78.16;100007.39;124171;1099;104245;-75
2022/08/02 01:19:34;;;;;;;11.53;5.30;;;;;;;19.17;77.92;100011.85;124190;1099;104216;-74
2022/08/02 01:22:34;;;;;;;9.53;5.60;;;;;;;19.12;78.10;100001.25;124213;1102;102823;-75
2022/08/02 01:25:25;;;;;;;8.70;5.73;;;;;;;19.08;77.74;99998.63;124207;1102;104233;-75
2022/08/02 01:28:14;;;;;;;8.20;4.97;;;;;;;19.07;77.80;99996.84;124220;1101;102197;-75
2022/08/02 01:30:45;;;;;;;7.80;5.00;;;;;;;19.12;78.38;99995.02;124172;1099;104347;-75
2022/08/02 01:33:18;;;;;;;8.77;5.17;;;;;;;19.17;78.37;99996.77;124203;1099;104235;-74
2022/08/02 01:35:52;;;;;;;9.70;5.65;;;;;;;19.19;77.72;99992.31;124202;1099;104241;-74
2022/08/02 01:38:23;;;;;;;;;;;;;;;19.18;78.19;99995.89;124200;1102;102797;-74
2022/08/02 01:40:53;;;;;;;9.17;5.40;;;;;;;19.20;78.07;99986.11;124192;1099;104300;-74
2022/08/02 01:43:25;;;;;;;11.03;5.47;;;;;;;19.20;77.76;99986.11;124174;1099;102169;-74
2022/08/02 01:45:55;;;;;;;8.27;5.37;;;;;;;19.19;77.93;99986.98;124188;1099;104169;-75
2022/08/02 01:48:25;;;;;;;10.13;5.60;;;;;;;19.19;78.08;99991.44;124197;1099;104239;-75
2022/08/02 01:50:56;;;;;;;9.77;5.80;;;;;;;19.17;77.89;99994.11;124152;1099;102750;-75
2022/08/02 01:53:28;;;;;;;9.00;5.50;;;;;;;19.16;78.59;99989.67;124189;1099;104166;-74
2022/08/02 01:55:59;;;;;;;11.97;5.83;;;;;;;19.14;78.19;99990.60;124233;1099;103261;-74
2022/08/02 01:58:31;;;;;;;9.97;6.10;;;;;;;19.12;78.98;99995.02;124191;1099;104242;-75
2022/08/02 02:01:01;;;;;;;10.35;6.15;;;;;;;19.12;78.74;99993.27;124180;1099;104325;-75
2022/08/02 02:03:31;;;;;;;11.13;6.10;;;;;;;19.12;78.38;99992.37;124154;1099;104166;-76
2022/08/02 02:06:01;;;;;;;12.33;6.17;;;;;;;19.12;78.83;99989.70;124191;1099;102790;-74
2022/08/02 02:08:35;;;;;;;12.83;6.33;;;;;;;19.14;78.75;99995.92;124224;1099;101953;-75
2022/08/02 02:11:05;;;;;;;14.03;6.40;;;;;;;19.10;78.68;99991.50;124184;1099;102932;-75
2022/08/02 02:13:37;;;;;;;12.20;6.60;;;;;;;19.09;79.05;100003.02;124213;1099;104239;-75
2022/08/02 02:16:06;;;;;;;11.27;6.90;;;;;;;19.04;79.43;99992.42;124237;1099;104204;-75
2022/08/02 02:18:42;;;;;;;11.97;6.70;;;;;;;19.01;79.30;99997.76;124218;1099;104345;-75
2022/08/02 02:21:12;;;;;;;14.27;6.90;;;;;;;18.98;79.00;99996.02;124185;1099;104297;-75
2022/08/02 02:23:42;;;;;;;9.10;6.00;;;;;;;18.98;78.81;99998.69;124203;1099;104232;-75
2022/08/02 02:26:14;;;;;;;11.43;6.90;;;;;;;18.98;79.55;99997.78;124274;1099;102370;-75
2022/08/02 02:28:45;;;;;;;11.37;6.93;;;;;;;18.90;79.65;99991.64;124189;1099;104184;-75
2022/08/02 02:31:18;;;;;;;11.90;6.90;;;;;;;18.96;80.11;100000.45;124187;1101;104197;-75
2022/08/02 02:33:50;;;;;;;12.30;7.40;;;;;;;18.95;79.18;100012.00;124208;1099;112332;-75
2022/08/02 02:36:22;;;;;;;11.23;7.43;;;;;;;18.96;79.22;100003.11;124228;1099;104179;-75
2022/08/02 02:38:52;;;;;;;13.10;6.77;;;;;;;18.99;79.72;100007.53;124204;1099;104291;-75
2022/08/02 02:41:23;;;;;;;13.37;7.27;;;;;;;19.01;79.11;100011.05;124163;1102;104325;-75
2022/08/02 02:43:54;;;;;;;11.50;7.30;;;;;;;19.01;80.27;100011.95;124264;1099;104175;-75
2022/08/02 02:46:26;;;;;;;12.63;7.70;;;;;;;18.99;80.37;100011.06;124241;1099;104169;-75
2022/08/02 02:48:56;;;;;;;12.53;7.67;;;;;;;18.96;80.27;100005.77;124210;1099;104265;-75
2022/08/02 02:51:26;;;;;;;14.37;8.07;;;;;;;18.96;79.61;100002.23;124236;1099;102793;-75
2022/08/02 02:53:55;;;;;;;14.83;8.30;;;;;;;18.96;79.86;100021.72;124172;1099;104329;-75
2022/08/02 02:56:24;;;;;;;14.77;7.93;;;;;;;18.95;80.54;100012.00;124197;1102;104175;-75
2022/08/02 02:58:54;;;;;;;14.83;8.30;;;;;;;18.96;80.29;100012.87;124219;1102;102771;-75
2022/08/02 03:01:30;;;;;;;14.97;8.73;;;;;;;18.92;80.05;100012.02;124189;1102;104230;-74
2022/08/02 03:04:01;;;;;;;16.73;8.67;;;;;;;18.92;80.69;100013.80;124205;1102;102791;-74
2022/08/02 03:06:30;;;;;;;18.10;8.90;;;;;;;18.91;80.47;100007.58;124185;1102;104395;-74
2022/08/02 03:08:59;;;;;;;16.90;9.50;;;;;;;18.94;81.51;100010.22;124249;1099;102857;-74
2022/08/02 03:11:29;;;;;;;15.90;9.30;;;;;;;18.92;80.80;100006.70;124175;1099;104248;-74
2022/08/02 03:13:59;;;;;;;16.20;9.55;;;;;;;18.93;81.52;100013.80;124222;1102;104172;-75
2022/08/02 03:16:28;;;;;;;16.90;8.93;;;;;;;18.95;81.65;100019.97;124246;1102;104212;-75
2022/08/02 03:19:01;;;;;;;17.60;10.10;;;;;;;18.95;81.68;100017.31;124217;1102;104389;-75
2022/08/02 03:21:32;;;;;;;15.53;9.23;;;;;;;18.97;81.81;100017.30;124197;1102;102586;-74
2022/08/02 03:24:01;;;;;;;18.87;9.47;;;;;;;19.00;81.32;100017.28;124170;1099;103267;-75
2022/08/02 03:26:30;;;;;;;18.50;9.73;;;;;;;19.01;81.99;100022.59;124206;1100;101803;-75
2022/08/02 03:28:58;;;;;;;16.87;9.40;;;;;;;19.03;82.29;100015.48;124235;1099;104169;-75
2022/08/02 03:31:27;;;;;;;18.10;10.20;;;;;;;19.04;82.05;100011.03;124189;1099;102091;-75
2022/08/02 03:33:58;;;;;;;16.60;9.80;;;;;;;19.07;82.01;100016.33;124185;1099;104316;-75
2022/08/02 03:36:31;;;;;;;18.83;10.10;;;;;;;19.12;82.10;100017.20;124177;1102;104166;-75
2022/08/02 03:39:01;;;;;;;18.48;9.78;;;;;;;19.16;82.27;100015.39;124252;1102;104248;-76
2022/08/02 03:41:32;;;;;;;17.13;10.07;;;;;;;19.18;82.17;100019.82;124227;1101;104182;-75
2022/08/02 03:44:02;;;;;;;16.90;10.40;;;;;;;19.21;82.51;100022.45;124190;1099;104329;-75
2022/08/02 03:46:32;;;;;;;18.83;10.53;;;;;;;19.27;82.43;100016.19;124171;1099;102171;-75
2022/08/02 03:49:02;;;;;;;17.70;10.47;;;;;;;19.32;82.54;100016.16;124143;1099;104322;-75
2022/08/02 03:51:31;;;;;;;17.77;10.30;;;;;;;19.35;82.05;100030.34;124209;1099;104242;-76
2022/08/02 03:53:59;;;;;;;18.43;10.60;;;;;;;19.38;83.06;100032.97;124204;1099;104169;-75
2022/08/02 03:56:29;;;;;;;18.57;10.63;;;;;;;19.43;82.60;100034.70;124220;1102;104392;-75
2022/08/02 03:59:13;;;;;;;16.20;9.77;;;;;;;19.47;82.86;100033.78;124202;1099;101902;-75
2022/08/02 04:01:41;;;;;;;;;;;;;;;19.54;83.44;100038.14;124249;1099;102381;-75
2022/08/02 04:04:10;;;;;;;19.17;10.00;;;;;;;19.58;82.07;100039.89;124223;1102;102960;-75
2022/08/02 04:06:38;;;;;;;17.80;9.87;;;;;;;19.65;82.37;100041.62;124228;1099;104666;-75
2022/08/02 04:09:07;;;;;;;19.83;10.27;;;;;;;19.74;82.11;100048.62;124218;1099;102631;-75
2022/08/02 04:11:36;;;;;;;18.53;10.60;;;;;;;19.82;82.35;100044.16;124191;1099;104166;-75
2022/08/02 04:14:07;;;;;;;16.23;10.00;;;;;;;19.90;83.04;100046.75;124227;1099;104166;-75
2022/08/02 04:16:42;;;;;;;18.20;10.50;;;;;;;19.99;82.01;100051.08;124262;1099;104245;-75
2022/08/02 04:19:16;;;;;;;18.90;10.50;;;;;;;20.06;82.99;100052.80;124234;1099;104629;-75
2022/08/02 04:21:48;;;;;;;18.77;10.10;;;;;;;20.15;82.28;100049.13;124229;1099;104236;-75
2022/08/02 04:24:20;;;;;;;18.30;10.23;;;;;;;20.21;82.07;100051.73;124257;1102;104354;-76
2022/08/02 04:26:49;;;;;;;16.43;10.30;;;;;;;20.25;82.15;100042.81;124255;1099;104197;-76
2022/08/02 04:29:19;;;;;;;16.37;9.97;;;;;;;20.25;81.54;100045.48;124218;1102;104204;-76
2022/08/02 04:31:48;;;;;;;19.33;10.23;;;;;;;20.28;82.26;100042.78;124267;1099;104249;-76
2022/08/02 04:34:17;;;;;;;16.87;9.47;;;;;;;20.31;82.21;100048.08;124178;1099;104217;-76
2022/08/02 04:36:46;;;;;;;18.17;10.10;;;;;;;20.32;81.56;100049.85;124237;1102;104156;-75
2022/08/02 04:39:15;;;;;;;18.33;9.73;;;;;;;20.34;82.40;100053.37;124141;1102;104242;-75
2022/08/02 04:41:46;;;;;;;21.50;10.90;;;;;;;20.37;82.08;100041.80;124199;1102;104341;-75
2022/08/02 04:44:15;;;;;;;19.63;10.53;;;;;;;20.40;81.55;100055.97;124194;1102;104246;-76
2022/08/02 04:46:45;;;;;;;16.73;10.10;;;;;;;20.45;81.76;100048.78;124207;1099;104294;-75
2022/08/02 04:49:24;;;;;;;18.77;10.03;;;;;;;20.50;81.38;100045.20;124217;1099;104181;-75
2022/08/02 04:51:54;;;;;;;20.20;9.93;;;;;;;20.58;81.32;100049.51;124205;1102;104166;-75
2022/08/02 04:54:24;;;;;;;16.60;9.87;;;;;;;20.70;80.96;100039.65;124226;1099;104297;-76
2022/08/02 04:56:53;;;;;;;18.67;10.27;;;;;;;20.75;81.15;100048.45;124267;1102;104213;-75
2022/08/02 04:59:22;;;;;;;17.63;10.13;;;;;;;20.78;81.08;100038.62;124212;1102;102796;-75
2022/08/02 05:01:51;;;;;;;19.57;10.40;;;;;;;20.86;81.75;100046.52;124212;1100;104175;-74
2022/08/02 05:04:22;;;;;;;19.07;9.40;;;;;;;20.91;81.30;100049.12;124294;1099;104185;-76
2022/08/02 05:06:51;;;;;;;18.27;9.77;;;;;;;20.93;81.54;100053.55;124202;1099;102126;-76
2022/08/02 05:09:19;;;;;;;23.00;10.63;;;;;;;20.94;80.71;100054.41;124292;1099;102798;-75
2022/08/02 05:11:48;;;;;;;18.23;10.40;;;;;;;20.96;80.54;100057.96;124204;1099;102887;-76
2022/08/02 05:14:17;;;;;;;18.53;10.40;;;;;;;20.99;81.28;100063.25;124262;1099;104169;-75
2022/08/02 05:16:46;;;;;;;17.57;10.20;;;;;;;21.05;79.84;100065.84;125684;1098;102327;-76
2022/08/02 05:19:15;;;;;;;19.23;10.00;;;;;;;21.07;80.85;100056.02;124275;1099;102788;-76
2022/08/02 05:21:44;;;;;;;19.37;10.20;;;;;;;21.15;80.18;100058.58;124204;1099;102379;-75
2022/08/02 05:24:13;;;;;;;17.27;10.23;;;;;;;21.19;80.38;100061.17;124221;1102;102999;-75
2022/08/02 05:26:42;;;;;;;18.03;10.93;;;;;;;21.19;79.72;100057.60;124198;1102;104230;-76
2022/08/02 05:29:14;;;;;;;18.33;10.63;;;;;;;21.23;80.04;100061.13;124332;1099;104169;-75
2022/08/02 05:31:44;;;;;;;19.00;10.53;;;;;;;21.23;80.27;100066.47;124257;1099;101815;-77
2022/08/02 05:34:13;;;;;;;18.03;10.20;;;;;;;21.24;80.38;100062.87;125096;1099;101988;-77
2022/08/02 05:36:42;;;;;;;17.70;10.23;;;;;;;21.23;80.06;100061.13;124704;1099;102887;-75
2022/08/02 05:39:11;;;;;;;18.90;11.03;;;;;;;21.22;80.09;100065.56;125537;1099;102806;-75
2022/08/02 05:41:45;;;;;;;20.03;11.07;;;;;;;21.28;80.40;100067.27;124222;1099;104226;-76
2022/08/02 05:44:17;;;;;;;15.55;9.70;;;;;;;21.35;79.65;100067.15;124396;1102;104280;-78
2022/08/02 05:46:46;;;;;;;;;;;;;;;21.42;79.44;100067.05;124351;1102;102844;-77
2022/08/02 05:49:20;;;;;;;20.13;10.23;;;;;;;21.41;79.59;100066.19;124316;1102;104204;-77
2022/08/02 05:51:59;;;;;;;20.00;10.60;;;;;;;21.41;78.65;100071.52;124328;1099;102363;-77
2022/08/02 05:54:42;;;;;;;17.80;10.17;;;;;;;21.40;78.99;100076.88;124971;1102;104156;-79
2022/08/02 05:57:25;;;;;;;21.05;11.90;;;;;;;21.40;79.30;100077.75;124776;1099;104169;-77
2022/08/02 06:00:06;;;;;;;18.53;10.20;;;;;;;21.37;79.12;100083.14;124283;1099;104284;-77
2022/08/02 06:03:16;;;;;;;20.53;11.33;;;;;;;21.36;79.07;100084.94;124216;1099;104686;-76
2022/08/02 06:06:05;;;;;;;18.15;11.10;;;;;;;21.36;78.86;100086.70;125002;1099;102118;-77
2022/08/02 06:08:42;;;;;;;18.73;11.47;;;;;;;21.40;78.54;100093.77;124851;1099;102752;-78
2022/08/02 06:11:32;;;;;;;18.13;10.73;;;;;;;21.47;79.09;100086.53;125000;1099;104245;-79
2022/08/02 06:14:08;;;;;;;20.10;10.90;;;;;;;21.53;77.96;100092.72;124961;1100;104293;-80
2022/08/02 06:16:56;;;;;;;18.37;11.67;;;;;;;21.59;78.71;100093.52;124948;1102;102394;-79
2022/08/02 06:19:55;;;;;;;19.10;11.60;;;;;;;21.62;78.02;100099.67;124983;1102;104158;-78
2022/08/02 06:23:10;;;;;;;23.27;10.87;;;;;;;21.63;78.25;100103.22;124943;1099;104158;-78
2022/08/02 06:26:09;;;;;;;16.90;10.53;;;;;;;21.65;78.60;100099.62;124999;1099;104192;-80
2022/08/02 06:29:16;;;;;;;17.83;10.37;;;;;;;21.68;77.77;100096.91;124993;1099;102190;-80
2022/08/02 06:35:40;;;;;;;22.70;10.60;;;;;;;21.82;77.44;100099.34;124872;1102;104125;-78
2022/08/02 06:39:06;;;;;;;18.20;10.60;;;;;;;21.93;77.70;100108.98;125530;1102;104086;-81
2022/08/02 06:41:54;;;;;;;24.40;11.07;;;;;;;21.99;77.71;100103.53;125054;1102;102776;-78
2022/08/02 06:44:48;;;;;;;19.30;10.33;;;;;;;22.13;76.93;100109.50;124859;1102;104380;-78
2022/08/02 06:48:03;;;;;;;17.73;9.57;;;;;;;22.25;76.46;100116.39;124847;1105;104229;-79
2022/08/02 06:51:06;;;;;;;;;;;;;;;;;;;;;
2022/08/02 06:54:41;;;;;;;;;;;;;;;;;;;;;
2022/08/02 07:02:01;;;;;;;;;;;;;;;;;;;;;
2022/08/02 07:05:17;;;;;;;18.10;9.87;;;;;;;22.48;75.17;100121.34;124159;1112;104578;-80
2022/08/02 07:08:38;;;;;;;19.27;10.37;;;;;;;22.60;74.70;100123.78;124424;1112;102401;-80
2022/08/02 07:12:05;;;;;;;18.07;10.33;;;;;;;22.72;74.44;100121.77;124140;1112;102159;-79
2022/08/02 07:15:22;;;;;;;;;;;;;;;;;;;;;
2022/08/02 07:18:17;;;;;;;;;;;;;;;;;;;;;
2022/08/02 07:21:26;;;;;;;21.13;10.60;;;;;;;22.91;73.95;100128.50;124219;1109;104412;-80
2022/08/02 07:24:24;;;;;;;27.63;11.50;;;;;;;22.90;73.32;100129.41;125119;1109;102391;-80
2022/08/02 07:27:52;;;;;;;;;;;;;;;;;;;;;
2022/08/02 07:31:29;;;;;;;;;;;;;;;;;;;;;
2022/08/02 07:38:07;;;;;;;;;;;;;;;;;;;;;
2022/08/02 07:41:17;;;;;;;;;;;;;;;;;;;;;
2022/08/02 07:44:30;;;;;;;20.70;11.67;;;;;;;23.16;72.28;100125.34;124419;1109;103504;-80
2022/08/02 07:47:18;;;;;;;24.27;13.00;;;;;;;23.14;72.38;100128.05;124487;1108;104295;-80
2022/08/02 07:50:04;;;;;;;25.07;12.87;;;;;;;23.20;72.25;100136.84;124563;1105;103029;-78
2022/08/02 07:52:39;;;;;;;20.27;12.60;;;;;;;23.22;71.44;100130.55;124542;1105;103052;-77
2022/08/02 07:55:12;;;;;;;18.93;11.30;;;;;;;23.30;71.69;100133.93;123965;1105;104312;-78
2022/08/02 07:57:59;;;;;;;20.27;11.60;;;;;;;23.40;71.48;100128.37;124487;1105;103594;-79
2022/08/02 08:00:54;;;;;;;22.17;11.73;;;;;;;23.39;70.47;100137.30;125431;1105;102303;-78
2022/08/02 08:03:27;;;;;;;18.87;11.07;;;;;;;23.37;69.88;100139.14;124760;1105;104242;-77
2022/08/02 08:06:13;;;;;;;22.13;10.60;;;;;;;23.32;69.83;100137.44;124891;1103;107307;-80
2022/08/02 08:08:49;;;;;;;17.10;9.23;;;;;;;23.28;69.70;100143.80;125053;1099;104187;-80
2022/08/02 08:14:29;;;;;;;15.00;8.77;;;;;;;23.06;69.88;100139.78;124998;1102;104175;-80
2022/08/02 08:20:17;;;;;;;16.53;8.77;;;;;;;22.95;70.27;100151.62;125012;1102;103277;-79
2022/08/02 08:23:04;;;;;;;23.53;9.10;;;;;;;22.97;70.34;100148.91;125038;1102;102266;-79
2022/08/02 08:25:51;;;;;;;32.70;9.28;;;;;;;23.02;70.04;100141.66;124921;1102;102514;-79
2022/08/02 08:31:35;;;;;;;17.03;7.90;;;;;;;23.08;69.45;100138.88;124329;1102;104204;-79
2022/08/02 08:34:17;;;;;;;;;;;;;;;;;;;;;
2022/08/02 08:36:49;;;;;;;17.60;8.43;;;;;;;23.25;69.91;100151.90;126116;1101;102383;-77
2022/08/02 08:39:36;;;;;;;;;;;;;;;23.28;69.25;100143.80;125450;1101;102868;-78
2022/08/02 08:42:18;;;;;;;13.47;8.10;;;;;;;23.39;69.32;100140.88;125004;1102;104229;-79
2022/08/02 08:45:04;;;;;;;13.87;8.07;;;;;;;23.42;68.56;100139.91;124998;1102;102759;-78
2022/08/02 08:47:48;;;;;;;15.67;8.07;;;;;;;23.61;68.78;100135.90;124975;1099;103283;-77
2022/08/02 08:50:32;;;;;;;17.00;8.30;;;;;;;23.90;68.61;100142.36;125011;1102;104358;-79
2022/08/02 08:53:13;;;;;;;19.33;7.77;;;;;;;24.14;68.01;100142.68;124947;1102;104214;-78
2022/08/02 08:55:45;;;;;;;17.40;8.47;;;;;;;24.32;66.59;100144.84;124970;1102;104233;-77
2022/08/02 08:58:19;;;;;;;17.43;8.07;;;;;;;24.52;65.71;100143.44;124992;1102;104197;-78
2022/08/02 09:00:58;;;;;;;13.77;7.40;;;;;;;24.70;65.70;100140.28;124747;1099;104057;-78
2022/08/02 09:03:50;;;;;;;15.32;7.83;;;;;;;24.84;63.33;100139.89;124995;1099;104294;-78
2022/08/02 09:06:30;;;;;;;13.87;7.67;;;;;;;24.86;64.52;100143.39;124948;1099;104166;-78
2022/08/02 09:09:19;;;;;;;12.40;7.77;;;;;;;24.80;63.77;100138.20;125036;1099;104259;-78
2022/08/02 09:12:14;;;;;;;15.17;7.80;;;;;;;24.89;64.54;100137.06;124952;1099;103232;-78
2022/08/02 09:14:48;;;;;;;13.43;7.23;;;;;;;25.01;63.34;100146.55;125021;1099;104115;-79
2022/08/02 09:17:25;;;;;;;13.93;7.50;;;;;;;24.93;63.61;100142.30;125019;1099;104169;-79
2022/08/02 09:20:17;;;;;;;14.50;6.80;;;;;;;24.85;63.81;100140.75;125100;1102;104236;-78
2022/08/02 09:23:13;;;;;;;13.20;7.13;;;;;;;24.74;63.76;100141.96;125087;1102;102781;-78
2022/08/02 09:25:59;;;;;;;10.50;6.60;;;;;;;24.84;64.08;100150.62;125055;1102;104297;-78
2022/08/02 09:28:45;;;;;;;13.27;7.20;;;;;;;24.88;62.52;100154.95;125071;1102;104329;-79
2022/08/02 09:31:34;;;;;;;11.60;6.90;;;;;;;25.04;63.39;100149.14;125022;1102;102395;-80
2022/08/02 09:34:21;;;;;;;12.03;6.77;;;;;;;25.34;62.11;100166.17;125541;1102;102280;-80
2022/08/02 09:37:06;;;;;;;9.67;6.67;;;;;;;25.39;62.52;100158.84;124997;1102;104169;-80
2022/08/02 09:40:02;;;;;;;11.13;6.70;;;;;;;25.21;61.58;100172.80;124831;1102;104219;-79
2022/08/02 09:43:02;;;;;;;11.17;6.57;;;;;;;25.01;62.09;100176.06;124977;1102;102566;-80
2022/08/02 09:45:55;;;;;;;12.83;6.40;;;;;;;24.93;62.35;100173.61;124969;1102;104433;-80
2022/08/02 09:48:48;;;;;;;11.63;7.40;;;;;;;24.76;61.08;100174.98;125032;1102;112102;-79
2022/08/02 09:51:30;;;;;;;13.03;7.47;;;;;;;24.76;61.68;100174.08;125063;1099;101996;-79
2022/08/02 09:54:07;;;;;;;11.20;6.93;;;;;;;24.75;61.87;100178.58;125017;1099;104217;-78
2022/08/02 09:56:56;;;;;;;13.57;7.17;;;;;;;24.63;61.53;100168.19;124978;1099;102656;-79
2022/08/02 09:59:52;;;;;;;12.63;7.20;;;;;;;24.56;60.87;100182.67;125065;1102;102265;-80
2022/08/02 10:02:36;;;;;;;12.80;7.40;;;;;;;24.56;61.75;100174.62;124977;1102;102183;-81
2022/08/02 10:05:20;;;;;;;11.00;6.83;;;;;;;24.51;61.87;100179.22;124967;1101;102894;-79
2022/08/02 10:08:03;;;;;;;11.83;7.27;;;;;;;24.37;62.00;100183.16;124955;1099;104194;-79
2022/08/02 10:10:39;;;;;;;13.27;8.00;;;;;;;24.19;62.14;100184.51;124963;1099;104214;-80
2022/08/02 10:13:19;;;;;;;15.57;7.73;;;;;;;24.09;62.54;100179.42;125032;1099;104238;-81
2022/08/02 10:15:54;;;;;;;11.77;7.10;;;;;;;23.97;62.19;100185.98;125002;1099;101993;-80
2022/08/02 10:18:24;;;;;;;12.30;7.40;;;;;;;23.89;62.43;100188.84;125195;1099;102698;-84
2022/08/02 10:21:01;;;;;;;13.50;7.93;;;;;;;23.86;62.98;100186.24;125210;1099;102938;-80
2022/08/02 10:23:38;;;;;;;12.13;7.47;;;;;;;23.90;62.74;100192.40;125072;1102;104312;-79
2022/08/02 10:26:16;;;;;;;12.73;7.67;;;;;;;24.05;62.65;100184.86;125168;1099;104176;-78
2022/08/02 10:28:53;;;;;;;12.80;7.60;;;;;;;24.25;62.75;100177.22;124966;1099;104086;-79
2022/08/02 10:31:26;;;;;;;14.50;7.87;;;;;;;24.25;62.48;100180.80;125005;1099;104086;-84
2022/08/02 10:34:02;;;;;;;16.57;7.60;;;;;;;24.37;62.72;100179.58;125077;1099;104230;-82
2022/08/02 10:36:47;;;;;;;10.97;7.30;;;;;;;24.44;62.04;100174.95;125301;1102;102284;-80
2022/08/02 10:39:59;;;;;;;12.50;7.05;;;;;;;24.61;62.28;100170.05;125141;1102;104097;-80
2022/08/02 10:43:04;;;;;;;15.00;7.67;;;;;;;24.80;61.80;100164.16;124960;1101;104188;-79
2022/08/02 10:45:53;;;;;;;12.77;6.80;;;;;;;25.03;60.38;100168.88;125089;1102;102432;-81
2022/08/02 10:49:04;;;;;;;10.90;6.83;;;;;;;25.09;59.70;100177.61;125315;1101;104284;-80
2022/08/02 10:52:08;;;;;;;15.70;6.70;;;;;;;25.09;59.61;100166.01;125009;1099;104133;-78
2022/08/02 10:54:57;;;;;;;12.93;6.63;;;;;;;25.32;59.30;100159.95;124978;1099;104210;-78
2022/08/02 10:58:11;;;;;;;14.00;7.20;;;;;;;25.57;59.22;100160.09;124942;1099;104298;-77
2022/08/02 11:00:50;;;;;;;9.35;5.60;;;;;;;25.62;58.53;100163.50;124972;1102;104185;-78
2022/08/02 11:03:59;;;;;;;12.33;6.60;;;;;;;25.65;58.80;100154.47;124782;1102;102478;-79
2022/08/02 11:07:12;;;;;;;14.30;6.60;;;;;;;25.64;57.61;100158.94;124841;1102;104235;-79
2022/08/02 11:09:45;;;;;;;11.43;6.00;;;;;;;25.69;58.11;100155.24;124984;1102;104242;-78
2022/08/02 11:12:16;;;;;;;9.83;6.20;;;;;;;25.71;57.50;100154.27;124355;1102;104153;-77
2022/08/02 11:14:59;;;;;;;9.33;6.10;;;;;;;25.81;57.48;100149.47;124117;1102;103398;-77
2022/08/02 11:17:53;;;;;;;12.37;6.47;;;;;;;25.95;57.66;100151.70;124356;1102;104351;-86
2022/08/02 11:20:28;;;;;;;9.73;5.50;;;;;;;25.95;56.19;100147.20;124955;1105;102171;-79
2022/08/02 11:23:37;;;;;;;11.37;5.77;;;;;;;25.93;56.70;100161.61;124916;1102;102967;-80
2022/08/02 11:26:43;;;;;;;14.23;6.83;;;;;;;25.82;56.71;100149.42;124369;1102;104233;-81
2022/08/02 11:29:18;;;;;;;12.47;6.67;;;;;;;25.71;57.35;100156.97;124948;1102;104374;-82
2022/08/02 11:32:26;;;;;;;12.60;6.37;;;;;;;25.54;57.26;100160.19;124740;1105;104341;-81
2022/08/02 11:34:59;;;;;;;;;;;;;;;25.39;57.25;100148.10;124852;1105;103460;-80
2022/08/02 11:38:10;;;;;;;15.23;6.10;;;;;;;25.38;57.72;100149.02;124809;1105;104165;-80
2022/08/02 11:41:20;;;;;;;8.87;5.67;;;;;;;25.43;57.27;100139.03;124716;1102;104271;-80
2022/08/02 11:44:03;;;;;;;13.23;6.37;;;;;;;25.59;57.02;100142.10;124869;1102;104165;-78
2022/08/02 11:46:39;;;;;;;13.23;6.43;;;;;;;25.68;57.50;100140.04;124807;1105;102766;-83
2022/08/02 11:49:35;;;;;;;16.37;6.80;;;;;;;25.83;57.25;100126.97;124914;1105;104221;-79
2022/08/02 11:52:43;;;;;;;;;;;;;;;;;;;;;
2022/08/02 11:55:16;;;;;;;12.13;6.27;;;;;;;25.92;56.78;100128.48;125084;1099;104207;-80
2022/08/02 11:57:59;;;;;;;10.45;6.05;;;;;;;25.96;56.44;100140.00;125184;1099;104166;-83
2022/08/02 12:00:39;;;;;;;11.50;6.00;;;;;;;25.95;56.52;100146.33;125113;1102;102399;-82
2022/08/02 12:03:16;;;;;;;14.90;6.47;;;;;;;25.90;56.04;100150.95;125523;1099;104137;-79
2022/08/02 12:05:50;;;;;;;11.97;6.47;;;;;;;25.82;56.10;100151.20;125135;1099;103454;-81
2022/08/02 12:08:28;;;;;;;9.90;6.00;;;;;;;25.74;56.07;100151.48;125233;1102;104221;-80
2022/08/02 12:11:12;;;;;;;10.20;5.63;;;;;;;25.88;56.54;100151.00;125095;1102;104350;-81
2022/08/02 12:13:49;;;;;;;14.70;6.50;;;;;;;25.96;56.23;100158.81;125002;1106;102812;-81
2022/08/02 12:19:22;;;;;;;12.23;5.80;;;;;;;26.23;54.98;100167.80;124938;1105;104245;-79
2022/08/02 12:22:35;;;;;;;12.27;6.20;;;;;;;26.17;54.88;100155.44;124873;1105;102386;-79
2022/08/02 12:25:30;;;;;;;15.07;6.20;;;;;;;26.32;54.83;100161.23;124928;1105;104384;-80
2022/08/02 12:28:15;;;;;;;16.97;6.57;;;;;;;26.50;55.24;100148.93;124478;1105;103078;-81
2022/08/02 12:31:09;;;;;;;17.97;6.73;;;;;;;26.50;54.64;100149.80;124793;1105;102763;-80
2022/08/02 12:33:53;;;;;;;13.63;6.33;;;;;;;26.60;54.51;100158.44;124512;1106;104188;-82
2022/08/02 12:37:07;;;;;;;;;;;;;;;;;;;;;
2022/08/02 12:39:54;;;;;;;17.17;6.17;;;;;;;26.50;54.54;100141.73;124914;1105;102142;-80
2022/08/02 12:42:28;;;;;;;16.83;6.97;;;;;;;26.55;54.51;100144.25;125227;1105;104150;-79
2022/08/02 12:45:21;;;;;;;10.20;6.30;;;;;;;26.57;54.19;100154.96;124866;1105;104252;-79